Terminal Aerodrome Forecast
Issued by NWS Boise, ID

Home | Current Version | Previous Version | Text Only | Print | Product List | Glossary On
Versions: 1 2 3 4 5 6 7 8 9 10 11 12 13
000
FTUS45 KBOI 300555
TAFBOI
TAF
KBOI 300555Z 3006/0106 14008KT P6SM BKN120
     FM301700 31010G18KT P6SM BKN100
     FM010200 31008KT P6SM BKN100=

USA.gov is the U.S. government's official web portal to all federal, state and local government web resources and services.